Huvudsida
METAR-TAF:

METAR-TAF

Flygplatser :

Belize International Airport

Belize City, Belize

latitud: 17-32N, longitud: 088-18W, höjd: 5 m

Aktuellt väderrapport

Denna rapport gjordes för 8 timmar och 3 minuter sedan, klockan 02:00 UTC
Vind 4 kt från ost
Temperatur 28°C
Fuktighet 84%
Tryck 1014 hPa
Sikt 10 km eller mer
Få moln på en höjd av 2100 ft

METAR: MZBZ 230200Z 10004KT 9999 FEW021 28/25 A2996 Q1014 NOSIG

Tid: 04:03 (10:03 UTC)

Väderprognos

Denna rapport gjordes för 7 timmar och 3 minuter sedan, klockan 03:00 UTC
Prognos gäller från 23 kl. 06 UTC till 24 kl. 06 UTC
Vind 10 kt från ost
Sikt 10 km eller mer
Spridda moln på en höjd av 2400 ft

TAF: MZBZ 230300Z 2306/2406 10010KT 9999 SCT024

Aktuella väderrapporter och prognoser från 4000 flygplatser (METAR- och TAF-rapporter).

De tillgängliga stationerna syns som gula och röda prickar på kartan.

För musen över prickarna för att se namnen på stationerna.

Klicka sedan för att få väderrapporter och prognoser.

För att ändra kartan: Klicka på de gröna knapparna med ett svart kors på för att zooma in; den gröna knappen med ett streck på för att zooma ut; eller på de gröna pilarna för angränsande kartor.


METAR-TAF: